createdAt,value
2017-05-09T00:01:34.590Z,78.90
2017-05-09T00:04:00.980Z,78.70
2017-05-09T00:06:28.213Z,79.30
2017-05-09T00:08:54.725Z,79.20
2017-05-09T00:11:22.643Z,78.50
2017-05-09T00:13:49.052Z,78.40
2017-05-09T00:16:15.436Z,78.60
2017-05-09T00:18:41.845Z,78.60
2017-05-09T00:21:08.230Z,78.70
2017-05-09T00:23:35.398Z,78.90
2017-05-09T00:26:01.842Z,78.90
2017-05-09T00:28:28.276Z,79.50
2017-05-09T00:30:54.651Z,80.10
2017-05-09T00:33:21.035Z,80.40
2017-05-09T00:35:47.444Z,80.70
2017-05-09T00:38:14.610Z,80.90
2017-05-09T00:40:40.996Z,80.90
2017-05-09T00:43:08.918Z,80.60
2017-05-09T00:45:35.333Z,81.30
2017-05-09T00:48:01.748Z,80.70
2017-05-09T00:50:28.880Z,81.20
2017-05-09T00:52:55.260Z,81.10
2017-05-09T00:55:21.702Z,81.60
2017-05-09T00:57:48.905Z,81.60
2017-05-09T01:00:16.052Z,81.50
2017-05-09T01:02:43.239Z,81.50
2017-05-09T01:05:09.647Z,81.40
2017-05-09T01:07:36.796Z,82.70
2017-05-09T01:10:04.013Z,83.00
2017-05-09T01:12:30.393Z,83.00
2017-05-09T01:14:56.762Z,82.80
2017-05-09T01:17:23.154Z,82.50
2017-05-09T01:19:49.542Z,82.10
2017-05-09T01:22:15.938Z,81.80
2017-05-09T01:24:42.358Z,81.70
2017-05-09T01:27:08.747Z,82.00
2017-05-09T01:29:35.951Z,81.70
2017-05-09T01:32:02.347Z,81.70
2017-05-09T01:34:29.489Z,83.40
2017-05-09T01:36:56.663Z,83.00
2017-05-09T01:39:23.807Z,82.80
2017-05-09T01:41:50.189Z,82.90
2017-05-09T01:44:16.709Z,82.40
2017-05-09T01:46:43.085Z,82.20
2017-05-09T01:49:10.226Z,82.40
2017-05-09T01:51:37.407Z,82.60
2017-05-09T01:54:03.781Z,82.50
2017-05-09T01:56:30.171Z,82.60
2017-05-09T01:58:57.426Z,82.10
2017-05-09T02:01:24.761Z,82.10
2017-05-09T02:03:51.180Z,82.00
2017-05-09T02:06:18.341Z,82.10
2017-05-09T02:08:44.725Z,82.10
2017-05-09T02:11:11.091Z,82.40
2017-05-09T02:13:37.495Z,81.90
2017-05-09T02:16:03.867Z,82.40
2017-05-09T02:18:30.284Z,82.00
2017-05-09T02:20:57.553Z,83.00
2017-05-09T02:23:24.681Z,82.80
2017-05-09T02:25:51.872Z,82.70
2017-05-09T02:28:18.256Z,82.70
2017-05-09T02:30:44.628Z,82.40
2017-05-09T02:33:11.024Z,81.90
2017-05-09T02:35:38.178Z,82.00
2017-05-09T02:38:05.316Z,82.50
2017-05-09T02:40:32.476Z,82.30
2017-05-09T02:42:58.845Z,82.20
2017-05-09T02:45:25.249Z,82.50
2017-05-09T02:47:51.621Z,81.90
2017-05-09T02:50:18.044Z,81.50
2017-05-09T02:52:44.421Z,81.20
2017-05-09T02:55:11.553Z,80.80
2017-05-09T02:57:37.961Z,80.50
2017-05-09T03:00:04.324Z,80.40
2017-05-09T03:02:30.707Z,81.40
2017-05-09T03:04:57.197Z,80.60
2017-05-09T03:07:24.489Z,81.50
2017-05-09T03:09:50.854Z,81.50
2017-05-09T03:12:18.735Z,82.10
2017-05-09T03:14:45.911Z,82.30
2017-05-09T03:17:13.079Z,82.50
2017-05-09T03:19:39.527Z,82.50
2017-05-09T03:22:05.892Z,83.00
2017-05-09T03:24:33.067Z,82.20
2017-05-09T03:27:00.251Z,83.30
2017-05-09T03:29:26.638Z,83.30
2017-05-09T03:31:53.086Z,82.60
2017-05-09T03:34:20.261Z,81.60
2017-05-09T03:36:46.655Z,81.50
2017-05-09T03:39:13.850Z,82.90
2017-05-09T03:41:40.226Z,82.80
2017-05-09T03:44:06.604Z,83.00
2017-05-09T03:46:33.816Z,82.30
2017-05-09T03:49:01.045Z,81.90
2017-05-09T03:51:28.189Z,79.10
2017-05-09T03:53:54.607Z,79.10
2017-05-09T03:56:21.046Z,79.60
2017-05-09T03:58:47.439Z,80.70
2017-05-09T04:01:13.836Z,81.20
2017-05-09T04:03:40.209Z,81.80
2017-05-09T04:06:06.627Z,81.60
2017-05-09T04:08:33.045Z,81.10
2017-05-09T04:11:00.209Z,81.90
2017-05-09T04:13:26.593Z,81.70
2017-05-09T04:15:52.992Z,81.50
2017-05-09T04:18:19.412Z,81.40
2017-05-09T04:20:45.849Z,81.80
2017-05-09T04:23:13.019Z,82.60
2017-05-09T04:25:39.395Z,81.80
2017-05-09T04:28:06.538Z,81.50
2017-05-09T04:30:33.704Z,80.80
2017-05-09T04:33:00.091Z,80.80
2017-05-09T04:35:26.478Z,80.50
2017-05-09T04:37:52.995Z,80.70
2017-05-09T04:40:20.144Z,79.80
2017-05-09T04:42:47.307Z,79.60
2017-05-09T04:45:13.737Z,79.60
2017-05-09T04:47:40.930Z,73.30
2017-05-09T04:50:07.434Z,73.30
2017-05-09T04:52:33.866Z,69.90
2017-05-09T04:55:00.270Z,67.70
2017-05-09T04:57:26.644Z,65.40
2017-05-09T04:59:53.068Z,64.70
2017-05-09T05:02:19.457Z,63.30
2017-05-09T05:04:46.601Z,60.00
2017-05-09T05:07:13.827Z,58.00
2017-05-09T05:09:40.221Z,57.90
2017-05-09T05:12:07.370Z,54.60
2017-05-09T05:14:33.758Z,54.60
2017-05-09T05:17:00.971Z,53.90
2017-05-09T05:19:27.384Z,53.80
2017-05-09T05:21:54.544Z,53.40
2017-05-09T05:24:21.055Z,53.40
2017-05-09T05:26:47.530Z,53.30
2017-05-09T05:29:14.696Z,52.30
2017-05-09T05:31:41.867Z,50.60
2017-05-09T05:34:09.096Z,50.70
2017-05-09T05:36:35.481Z,50.60
2017-05-09T05:39:01.865Z,51.40
2017-05-09T05:41:29.788Z,51.90
2017-05-09T05:43:56.168Z,51.90
2017-05-09T05:46:23.365Z,50.70
2017-05-09T05:48:49.743Z,50.50
2017-05-09T05:51:16.910Z,51.00
2017-05-09T05:53:44.075Z,50.50
2017-05-09T05:56:10.450Z,50.50
2017-05-09T05:58:37.640Z,49.40
2017-05-09T06:01:04.808Z,49.50
2017-05-09T06:03:31.221Z,49.50
2017-05-09T06:05:58.584Z,47.70
2017-05-09T06:08:24.961Z,47.70
2017-05-09T06:10:51.347Z,48.70
2017-05-09T06:13:17.797Z,48.70
2017-05-09T06:15:44.176Z,49.30
2017-05-09T06:18:10.629Z,49.30
2017-05-09T06:20:37.818Z,51.10
2017-05-09T06:23:04.233Z,51.00
2017-05-09T06:25:30.621Z,51.40
2017-05-09T06:27:57.771Z,60.70
2017-05-09T06:30:25.682Z,63.60
2017-05-09T06:32:52.256Z,63.50
2017-05-09T06:35:19.656Z,62.30
2017-05-09T06:37:46.031Z,62.40
2017-05-09T06:40:13.174Z,61.90
2017-05-09T06:42:39.673Z,61.90
2017-05-09T06:45:06.812Z,60.40
2017-05-09T06:47:34.046Z,62.80
2017-05-09T06:50:01.207Z,62.70
2017-05-09T06:52:28.355Z,60.40
2017-05-09T06:54:55.528Z,61.80
2017-05-09T06:57:21.917Z,61.70
2017-05-09T06:59:48.327Z,61.00
2017-05-09T07:02:14.763Z,57.60
2017-05-09T07:04:41.145Z,58.80
2017-05-09T07:07:08.278Z,57.80
2017-05-09T07:09:35.461Z,57.20
2017-05-09T07:12:01.867Z,57.20
2017-05-09T07:14:28.260Z,56.40
2017-05-09T07:16:54.688Z,57.40
2017-05-09T07:19:21.831Z,54.90
2017-05-09T07:21:48.228Z,54.80
2017-05-09T07:24:14.610Z,50.60
2017-05-09T07:26:42.518Z,54.60
2017-05-09T07:29:08.926Z,54.50
2017-05-09T07:31:35.302Z,52.10
2017-05-09T07:34:01.720Z,51.70
2017-05-09T07:36:28.156Z,53.30
2017-05-09T07:38:54.537Z,49.20
2017-05-09T07:41:20.969Z,52.70
2017-05-09T07:43:47.546Z,50.40
2017-05-09T07:46:14.731Z,49.60
2017-05-09T07:48:41.162Z,49.50
2017-05-09T07:51:07.567Z,51.10
2017-05-09T07:53:34.723Z,52.50
2017-05-09T07:56:01.135Z,52.50
2017-05-09T07:58:27.533Z,53.40
2017-05-09T08:00:53.925Z,48.50
2017-05-09T08:03:21.072Z,50.60
2017-05-09T08:05:48.254Z,49.40
2017-05-09T08:08:16.160Z,50.10
2017-05-09T08:10:42.545Z,50.10
2017-05-09T08:13:08.955Z,47.30
2017-05-09T08:15:36.119Z,50.40
2017-05-09T08:18:02.514Z,50.50
2017-05-09T08:20:28.946Z,49.50
2017-05-09T08:22:55.326Z,46.10
2017-05-09T08:25:21.699Z,44.40
2017-05-09T08:27:48.112Z,45.40
2017-05-09T08:30:15.254Z,46.00
2017-05-09T08:32:42.432Z,46.90
2017-05-09T08:35:08.810Z,46.80
2017-05-09T08:37:35.250Z,46.40
2017-05-09T08:40:01.669Z,48.40
2017-05-09T08:42:28.064Z,45.60
2017-05-09T08:44:54.482Z,44.60
2017-05-09T08:47:20.887Z,48.30
2017-05-09T08:49:48.072Z,44.50
2017-05-09T08:52:14.498Z,44.50
2017-05-09T08:54:40.887Z,42.40
2017-05-09T08:57:07.282Z,42.40
2017-05-09T08:59:33.684Z,43.50
2017-05-09T09:02:00.069Z,40.50
2017-05-09T09:04:26.460Z,47.00
2017-05-09T09:06:52.928Z,45.20
2017-05-09T09:09:20.873Z,43.90
2017-05-09T09:11:47.290Z,43.90
2017-05-09T09:14:14.445Z,47.90
2017-05-09T09:16:40.853Z,47.90
2017-05-09T09:19:08.025Z,45.50
2017-05-09T09:21:34.438Z,45.50
2017-05-09T09:24:00.828Z,46.70
2017-05-09T09:26:28.722Z,42.70
2017-05-09T09:28:55.910Z,40.90
2017-05-09T09:31:22.298Z,40.90
2017-05-09T09:33:49.489Z,41.00
2017-05-09T09:36:15.926Z,40.90
2017-05-09T09:38:43.091Z,37.90
2017-05-09T09:41:10.238Z,38.60
2017-05-09T09:43:36.660Z,38.70
2017-05-09T09:46:03.057Z,41.40
2017-05-09T09:48:30.239Z,45.60
2017-05-09T09:50:56.645Z,45.50
2017-05-09T09:53:23.027Z,43.50
2017-05-09T09:55:49.449Z,44.10
2017-05-09T09:58:15.857Z,42.00
2017-05-09T10:00:43.087Z,40.90
2017-05-09T10:03:09.512Z,40.90
2017-05-09T10:05:36.738Z,37.70
2017-05-09T10:08:03.128Z,37.70
2017-05-09T10:10:29.582Z,35.10
2017-05-09T10:12:55.949Z,36.10
2017-05-09T10:15:22.407Z,37.90
2017-05-09T10:17:49.552Z,42.10
2017-05-09T10:20:15.929Z,42.10
2017-05-09T10:22:42.435Z,41.10
2017-05-09T10:25:08.804Z,36.90
2017-05-09T10:27:35.273Z,33.70
2017-05-09T10:30:01.689Z,36.80
2017-05-09T10:32:28.861Z,35.60
2017-05-09T10:34:55.287Z,35.60
2017-05-09T10:37:22.480Z,33.90
2017-05-09T10:39:48.854Z,33.90
2017-05-09T10:42:15.299Z,32.10
2017-05-09T10:44:41.725Z,36.90
2017-05-09T10:47:08.862Z,35.50
2017-05-09T10:49:36.085Z,37.90
2017-05-09T10:52:02.538Z,37.90
2017-05-09T10:54:29.712Z,36.90
2017-05-09T10:56:56.167Z,36.90
2017-05-09T10:59:22.556Z,36.80
2017-05-09T11:01:49.703Z,39.80
2017-05-09T11:04:16.899Z,31.60
2017-05-09T11:06:43.270Z,31.60
2017-05-09T11:09:10.432Z,31.20
2017-05-09T11:11:37.665Z,35.10
2017-05-09T11:14:04.032Z,35.10
2017-05-09T11:16:30.432Z,35.90
2017-05-09T11:18:56.900Z,39.00
2017-05-09T11:21:23.323Z,34.40
2017-05-09T11:23:49.725Z,33.20
2017-05-09T11:26:16.139Z,33.80
2017-05-09T11:28:42.526Z,37.80
2017-05-09T11:31:09.623Z,37.40
2017-05-09T11:33:36.045Z,37.40
2017-05-09T11:36:02.418Z,31.60
2017-05-09T11:38:29.570Z,32.10
2017-05-09T11:40:56.016Z,32.10
2017-05-09T11:43:22.392Z,33.90
2017-05-09T11:45:50.285Z,28.80
2017-05-09T11:48:16.698Z,29.50
2017-05-09T11:50:43.233Z,32.50
2017-05-09T11:53:09.636Z,34.60
2017-05-09T11:55:36.031Z,34.60
2017-05-09T11:58:02.462Z,34.20
2017-05-09T12:00:29.627Z,31.30
2017-05-09T12:02:56.012Z,31.30
2017-05-09T12:05:22.432Z,30.60
2017-05-09T12:07:48.980Z,33.60
2017-05-09T12:10:15.351Z,33.80
2017-05-09T12:12:41.790Z,34.80
2017-05-09T12:15:08.162Z,37.30
2017-05-09T12:17:34.563Z,32.80
2017-05-09T12:20:01.762Z,33.70
2017-05-09T12:22:28.915Z,34.30
2017-05-09T12:24:56.135Z,30.70
2017-05-09T12:27:22.625Z,30.70
2017-05-09T12:29:49.007Z,28.20
2017-05-09T12:32:15.418Z,31.30
2017-05-09T12:34:41.790Z,29.80
2017-05-09T12:37:09.803Z,33.80
2017-05-09T12:39:36.260Z,33.10
2017-05-09T12:42:03.547Z,35.10
2017-05-09T12:44:29.993Z,32.30
2017-05-09T12:46:56.409Z,33.10
2017-05-09T12:49:24.265Z,29.20
2017-05-09T12:51:50.657Z,29.20
2017-05-09T12:54:17.717Z,32.60
2017-05-09T12:56:45.003Z,31.70
2017-05-09T12:59:12.403Z,29.70
2017-05-09T13:01:39.704Z,29.80
2017-05-09T13:04:06.084Z,36.30
2017-05-09T13:06:32.544Z,29.90
2017-05-09T13:08:59.001Z,32.10
2017-05-09T13:11:25.399Z,32.90
2017-05-09T13:13:52.562Z,31.60
2017-05-09T13:16:18.945Z,31.60
2017-05-09T13:18:45.599Z,30.70
2017-05-09T13:21:12.037Z,29.80
2017-05-09T13:23:38.433Z,29.00
2017-05-09T13:26:05.713Z,30.50
2017-05-09T13:28:32.927Z,33.40
2017-05-09T13:31:00.266Z,33.90
2017-05-09T13:33:27.441Z,32.30
2017-05-09T13:35:54.624Z,30.40
2017-05-09T13:38:21.010Z,30.40
2017-05-09T13:40:48.383Z,32.00
2017-05-09T13:43:15.882Z,32.00
2017-05-09T13:45:42.361Z,33.10
2017-05-09T13:48:09.519Z,35.10
2017-05-09T13:50:36.275Z,35.00
2017-05-09T13:53:02.677Z,35.10
2017-05-09T13:55:30.986Z,32.50
2017-05-09T13:57:57.399Z,32.50
2017-05-09T14:00:24.549Z,29.40
2017-05-09T14:02:50.975Z,29.40
2017-05-09T14:05:18.188Z,32.40
2017-05-09T14:07:44.680Z,32.50
2017-05-09T14:10:11.892Z,28.90
2017-05-09T14:12:39.052Z,29.10
2017-05-09T14:15:06.203Z,30.10
2017-05-09T14:17:33.421Z,30.40
2017-05-09T14:19:59.816Z,30.40
2017-05-09T14:22:26.222Z,31.10
2017-05-09T14:24:53.475Z,31.70
2017-05-09T14:27:19.871Z,31.60
2017-05-09T14:29:46.318Z,30.00
2017-05-09T14:32:13.464Z,30.10
2017-05-09T14:34:39.859Z,30.10
2017-05-09T14:37:06.286Z,31.00
2017-05-09T14:39:32.670Z,32.30
2017-05-09T14:41:59.844Z,28.50
2017-05-09T14:44:26.292Z,28.60
2017-05-09T14:46:52.659Z,32.90
2017-05-09T14:49:19.041Z,32.10
2017-05-09T14:51:45.612Z,33.00
2017-05-09T14:54:12.802Z,32.20
2017-05-09T14:56:39.955Z,33.00
2017-05-09T14:59:06.357Z,33.00
2017-05-09T15:01:32.743Z,34.10
2017-05-09T15:03:59.321Z,31.40
2017-05-09T15:06:25.722Z,31.00
2017-05-09T15:08:52.155Z,31.20
2017-05-09T15:11:18.547Z,32.40
2017-05-09T15:13:44.932Z,31.80
2017-05-09T15:16:12.149Z,32.20
2017-05-09T15:18:38.947Z,32.20
2017-05-09T15:21:05.331Z,31.20
2017-05-09T15:23:31.804Z,30.30
2017-05-09T15:25:58.208Z,29.00
2017-05-09T15:28:25.440Z,29.60
2017-05-09T15:30:51.868Z,29.60
2017-05-09T15:33:18.253Z,28.70
2017-05-09T15:35:44.727Z,30.70
2017-05-09T15:38:12.039Z,32.10
2017-05-09T15:40:38.477Z,32.10
2017-05-09T15:43:05.660Z,33.40
2017-05-09T15:45:32.097Z,33.40
2017-05-09T15:47:58.499Z,30.30
2017-05-09T15:50:25.151Z,30.80
2017-05-09T15:52:51.581Z,31.10
2017-05-09T15:55:18.758Z,32.20
2017-05-09T15:57:45.168Z,32.20
2017-05-09T16:00:11.537Z,34.40
2017-05-09T16:02:37.934Z,31.90
2017-05-09T16:05:04.352Z,30.30
2017-05-09T16:07:30.757Z,32.60
2017-05-09T16:09:58.648Z,35.30
2017-05-09T16:12:25.824Z,35.50
2017-05-09T16:14:52.222Z,35.50
2017-05-09T16:17:19.372Z,33.90
2017-05-09T16:19:46.531Z,32.20
2017-05-09T16:22:12.933Z,32.20
2017-05-09T16:24:40.811Z,32.10
2017-05-09T16:27:08.221Z,33.00
